Argora, Idaho
Current Conditions -  °F | °C
As of 11:08 AM on Saturday 20 Dec 2014 (Local Time) from KRXE Reporting Station
Light Snow Light Snow  
Wind Chill: 26°   Ceiling: 300
Heat Index: 32°   Visibility: 1.2mi
Dew Point: 32°   Wind: 6mph
Humidity: 100%   Direction: 220°SW
Pressure: 30.04"   Gusts: NA
Location:  44.2396°N, 112.579°W
Report Text: KRXE 201808Z AUTO 22005KT 1 1/4SM -SN BR OVC003 00/00 A3004 RMK AO2 P0001 T00000000
Loading
Personal Weather Stations






























Interactive Weather Map New forecast layout! Learn more

10-Day Weather Forecast

Advertisements
Track Severe Weather on mobile